CCA1535 ZWWW-ZSSS
Flight info
| Callsign | CCA1535 |
|---|---|
| Flight time | N/A |
| Altitude | 35100 |
| Route | VARMI W190 ADPET W188 DAKPA W189 AKLAS W192 ESDEX W191 DNC W565 BIGUX W214 HO EPDOR ATGEN W283 SUDGO W4 UPSIK W282 NUGSA ML W118 REVKU FYG B208 HFE R343 SASAN |
| Aircraft | A339/H-SADE1E2E3GHIJ1J3J5M1P2RWXY/LB1 |
Departure
| Time | 2026-04-30 08:13 |
|---|---|
| Airport | Ürümqi Tianshan International Airport (ZWWW) |
Arrival
| Time | N/A |
|---|---|
| Airport | Shanghai Hongqiao International Airport (ZSSS) |
| Time | Latitude | Longitude | Altitude | Speed | Heading |
|---|---|---|---|---|---|
| 2026-04-30 08:13 | 44.00414 | 87.71726 | 8757 ft | 253 kts | 45° |
| 2026-04-30 08:13 | 44.01573 | 87.73531 | 9435 ft | 255 kts | 45° |
| 2026-04-30 08:14 | 44.02772 | 87.75407 | 10120 ft | 258 kts | 44° |
| 2026-04-30 08:14 | 44.03950 | 87.77252 | 10833 ft | 259 kts | 44° |
| 2026-04-30 08:14 | 44.05147 | 87.79129 | 11550 ft | 261 kts | 43° |
| 2026-04-30 08:14 | 44.06353 | 87.81026 | 12254 ft | 262 kts | 43° |
| 2026-04-30 08:15 | 44.07572 | 87.82944 | 12977 ft | 263 kts | 43° |
| 2026-04-30 08:15 | 44.08770 | 87.84830 | 13683 ft | 264 kts | 43° |
| 2026-04-30 08:15 | 44.09995 | 87.86759 | 14375 ft | 266 kts | 43° |
| 2026-04-30 08:15 | 44.11210 | 87.88674 | 15065 ft | 267 kts | 43° |
| 2026-04-30 08:16 | 44.12432 | 87.90607 | 15733 ft | 269 kts | 43° |
| 2026-04-30 08:16 | 44.13672 | 87.92564 | 16381 ft | 272 kts | 43° |
| 2026-04-30 08:16 | 44.14919 | 87.94536 | 17042 ft | 274 kts | 43° |
| 2026-04-30 08:16 | 44.16124 | 87.96608 | 17675 ft | 281 kts | 55° |
| 2026-04-30 08:17 | 44.16729 | 87.99269 | 18264 ft | 301 kts | 79° |
| 2026-04-30 08:17 | 44.16456 | 88.02264 | 18657 ft | 326 kts | 102° |
| 2026-04-30 08:17 | 44.15702 | 88.05299 | 18952 ft | 343 kts | 103° |
| 2026-04-30 08:17 | 44.14884 | 88.08504 | 19243 ft | 358 kts | 104° |
| 2026-04-30 08:18 | 44.14037 | 88.11839 | 19529 ft | 373 kts | 104° |
| 2026-04-30 08:18 | 44.13168 | 88.15282 | 19861 ft | 386 kts | 104° |
| 2026-04-30 08:18 | 44.12270 | 88.18854 | 20390 ft | 392 kts | 104° |
| 2026-04-30 08:18 | 44.11369 | 88.22434 | 20994 ft | 396 kts | 104° |
| 2026-04-30 08:19 | 44.10461 | 88.26054 | 21597 ft | 399 kts | 103° |
| 2026-04-30 08:19 | 44.09543 | 88.29717 | 22195 ft | 402 kts | 104° |
| 2026-04-30 08:19 | 44.08626 | 88.33384 | 22711 ft | 406 kts | 104° |
| 2026-04-30 08:19 | 44.07695 | 88.37103 | 23211 ft | 410 kts | 104° |
| 2026-04-30 08:20 | 44.06755 | 88.40848 | 23755 ft | 413 kts | 103° |
| 2026-04-30 08:20 | 44.05797 | 88.44663 | 24269 ft | 417 kts | 104° |
| 2026-04-30 08:20 | 44.04840 | 88.48473 | 24761 ft | 420 kts | 104° |
| 2026-04-30 08:20 | 44.03882 | 88.52279 | 25209 ft | 424 kts | 104° |
| 2026-04-30 08:21 | 44.02900 | 88.56175 | 25639 ft | 428 kts | 104° |
| 2026-04-30 08:21 | 44.01914 | 88.60073 | 26070 ft | 432 kts | 104° |
| 2026-04-30 08:21 | 44.00909 | 88.64033 | 26521 ft | 435 kts | 104° |
| 2026-04-30 08:21 | 43.99899 | 88.68021 | 26953 ft | 438 kts | 105° |
| 2026-04-30 08:22 | 43.98888 | 88.72003 | 27356 ft | 441 kts | 105° |
| 2026-04-30 08:22 | 43.97865 | 88.76019 | 27713 ft | 446 kts | 105° |
| 2026-04-30 08:22 | 43.96820 | 88.80115 | 28073 ft | 449 kts | 105° |
| 2026-04-30 08:22 | 43.95850 | 88.84237 | 28441 ft | 452 kts | 103° |
| 2026-04-30 08:23 | 43.94909 | 88.88389 | 28847 ft | 454 kts | 103° |
| 2026-04-30 08:23 | 43.93967 | 88.92567 | 29220 ft | 457 kts | 103° |
| 2026-04-30 08:23 | 43.93011 | 88.96803 | 29527 ft | 461 kts | 103° |
| 2026-04-30 08:23 | 43.92056 | 89.01023 | 29879 ft | 464 kts | 103° |
| 2026-04-30 08:24 | 43.91084 | 89.05302 | 30213 ft | 466 kts | 104° |
| 2026-04-30 08:24 | 43.90095 | 89.09647 | 30402 ft | 473 kts | 104° |
| 2026-04-30 08:24 | 43.89103 | 89.13995 | 30521 ft | 480 kts | 104° |
| 2026-04-30 08:24 | 43.88083 | 89.18462 | 30691 ft | 486 kts | 104° |
| 2026-04-30 08:25 | 43.87064 | 89.22897 | 30993 ft | 488 kts | 104° |
| 2026-04-30 08:25 | 43.86029 | 89.27401 | 31334 ft | 489 kts | 104° |
| 2026-04-30 08:25 | 43.84997 | 89.31889 | 31607 ft | 492 kts | 104° |
| 2026-04-30 08:25 | 43.83948 | 89.36427 | 31862 ft | 494 kts | 104° |
| 2026-04-30 08:26 | 43.82898 | 89.40977 | 32121 ft | 497 kts | 104° |
| 2026-04-30 08:26 | 43.81848 | 89.45513 | 32407 ft | 498 kts | 105° |
| 2026-04-30 08:26 | 43.80792 | 89.50054 | 32892 ft | 494 kts | 105° |
| 2026-04-30 08:26 | 43.79742 | 89.54614 | 33286 ft | 493 kts | 104° |
| 2026-04-30 08:27 | 43.78734 | 89.59107 | 33584 ft | 493 kts | 104° |
| 2026-04-30 08:27 | 43.77723 | 89.63648 | 33872 ft | 494 kts | 104° |
| 2026-04-30 08:27 | 43.76709 | 89.68187 | 34157 ft | 494 kts | 105° |
| 2026-04-30 08:27 | 43.75689 | 89.72737 | 34436 ft | 495 kts | 105° |
| 2026-04-30 08:28 | 43.74668 | 89.77273 | 34710 ft | 495 kts | 105° |
| 2026-04-30 08:28 | 43.73658 | 89.81750 | 34919 ft | 496 kts | 105° |
| 2026-04-30 08:28 | 43.72623 | 89.86321 | 35143 ft | 496 kts | 105° |
| 2026-04-30 08:29 | 43.70566 | 89.95389 | 35219 ft | 498 kts | 105° |
| 2026-04-30 08:29 | 43.68478 | 90.04543 | 35187 ft | 499 kts | 105° |
| 2026-04-30 08:30 | 43.66437 | 90.13689 | 35182 ft | 499 kts | 104° |
| 2026-04-30 08:30 | 43.64484 | 90.22862 | 35164 ft | 499 kts | 104° |
| 2026-04-30 08:31 | 43.62519 | 90.32043 | 35158 ft | 499 kts | 104° |
| 2026-04-30 08:31 | 43.60534 | 90.41247 | 35141 ft | 501 kts | 104° |
| 2026-04-30 08:32 | 43.58545 | 90.50398 | 35135 ft | 500 kts | 104° |
| 2026-04-30 08:32 | 43.56547 | 90.59558 | 35121 ft | 501 kts | 105° |
| 2026-04-30 08:33 | 43.54527 | 90.68786 | 35124 ft | 501 kts | 106° |
| 2026-04-30 08:33 | 43.52512 | 90.77934 | 35126 ft | 502 kts | 105° |
| 2026-04-30 08:34 | 43.50479 | 90.87124 | 35135 ft | 501 kts | 105° |
| 2026-04-30 08:34 | 43.48443 | 90.96308 | 35145 ft | 500 kts | 106° |
| 2026-04-30 08:35 | 43.46400 | 91.05476 | 35152 ft | 502 kts | 106° |
| 2026-04-30 08:35 | 43.44362 | 91.14586 | 35171 ft | 502 kts | 106° |
| 2026-04-30 08:36 | 43.42299 | 91.23758 | 35175 ft | 502 kts | 106° |
| 2026-04-30 08:36 | 43.40235 | 91.32902 | 35169 ft | 502 kts | 106° |